createdAt,value
2023-02-04T00:04:56.262Z,100959.56
2023-02-04T00:09:53.061Z,100963.97
2023-02-04T00:14:49.800Z,100950.16
2023-02-04T00:19:47.108Z,100945.84
2023-02-04T00:24:50.990Z,100930.31
2023-02-04T00:29:48.093Z,100931.16
2023-02-04T00:34:45.071Z,100919.88
2023-02-04T00:39:42.356Z,100908.69
2023-02-04T00:44:39.056Z,100895.72
2023-02-04T00:49:36.087Z,100892.25
2023-02-04T00:54:32.889Z,100878.47
2023-02-04T00:59:30.198Z,100866.38
2023-02-04T01:04:27.677Z,100863.78
2023-02-04T01:09:24.956Z,100851.69
2023-02-04T01:14:21.691Z,100845.63
2023-02-04T01:19:20.679Z,100832.69
2023-02-04T01:24:17.274Z,100812.00
2023-02-04T01:29:32.696Z,100802.50
2023-02-04T01:34:30.963Z,100798.22
2023-02-04T01:39:27.712Z,100785.28
2023-02-04T01:44:25.649Z,100755.97
2023-02-04T01:49:22.512Z,100761.16
2023-02-04T01:54:21.174Z,100749.94
2023-02-04T01:59:18.531Z,100737.00
2023-02-04T02:04:16.313Z,100724.03
2023-02-04T02:09:13.151Z,100716.25
2023-02-04T02:14:10.414Z,100718.03
2023-02-04T02:19:08.889Z,100701.66
2023-02-04T02:24:23.775Z,100693.00
2023-02-04T02:29:23.348Z,100695.53
2023-02-04T02:34:20.693Z,100696.41
2023-02-04T02:39:18.520Z,100684.34
2023-02-04T02:44:16.469Z,100680.91
2023-02-04T02:49:15.191Z,100665.41
2023-02-04T02:54:19.195Z,100657.63
2023-02-04T02:59:17.490Z,100633.50
2023-02-04T03:04:15.423Z,100630.88
2023-02-04T03:09:11.979Z,100626.53
2023-02-04T03:14:11.502Z,100611.84
2023-02-04T03:19:09.077Z,100600.56
2023-02-04T03:24:06.051Z,100587.66
2023-02-04T03:29:02.869Z,100576.22
2023-02-04T03:33:59.561Z,100571.91
2023-02-04T03:38:56.935Z,100559.03
2023-02-04T03:43:53.759Z,100556.44
2023-02-04T03:48:50.382Z,100540.06
2023-02-04T03:53:46.914Z,100537.47
2023-02-04T03:58:44.149Z,100545.16
2023-02-04T04:03:40.634Z,100538.28
2023-02-04T04:08:37.369Z,100526.94
2023-02-04T04:13:33.969Z,100516.50
2023-02-04T04:18:32.129Z,100513.97
2023-02-04T04:23:28.731Z,100508.63
2023-02-04T04:28:25.469Z,100505.72
2023-02-04T04:33:23.855Z,100501.34
2023-02-04T04:38:21.146Z,100496.09
2023-02-04T04:43:17.761Z,100502.03
2023-02-04T04:48:14.578Z,100499.75
2023-02-04T04:53:11.206Z,100501.47
2023-02-04T04:58:08.582Z,100494.78
2023-02-04T05:03:05.302Z,100494.53
2023-02-04T05:08:01.903Z,100508.09
2023-02-04T05:12:58.542Z,100508.16
2023-02-04T05:17:56.147Z,100510.75
2023-02-04T05:22:52.874Z,100509.69
2023-02-04T05:27:49.539Z,100507.00
2023-02-04T05:32:46.323Z,100508.31
2023-02-04T05:37:43.692Z,100514.53
2023-02-04T05:42:41.342Z,100508.59
2023-02-04T05:47:38.312Z,100523.25
2023-02-04T05:52:35.257Z,100522.53
2023-02-04T05:57:32.535Z,100530.53
2023-02-04T06:02:29.131Z,100532.19
2023-02-04T06:07:25.967Z,100534.72
2023-02-04T06:12:22.644Z,100532.19
2023-02-04T06:17:19.912Z,100532.94
2023-02-04T06:22:17.121Z,100532.81
2023-02-04T06:27:13.921Z,100540.72
2023-02-04T06:32:10.865Z,100534.84
2023-02-04T06:37:08.341Z,100535.66
2023-02-04T06:42:05.276Z,100534.50
2023-02-04T06:47:02.193Z,100546.69
2023-02-04T06:51:58.944Z,100541.31
2023-02-04T06:57:06.063Z,100547.53
2023-02-04T07:02:03.357Z,100541.56
2023-02-04T07:07:00.121Z,100540.66
2023-02-04T07:11:56.673Z,100553.38
2023-02-04T07:16:54.156Z,100547.00
2023-02-04T07:21:53.501Z,100533.53
2023-02-04T07:26:50.338Z,100557.75
2023-02-04T07:31:47.390Z,100550.84
2023-02-04T07:36:44.859Z,100554.59
2023-02-04T07:41:41.724Z,100560.50
2023-02-04T07:46:40.010Z,100554.91
2023-02-04T07:51:36.722Z,100554.16
2023-02-04T07:56:34.225Z,100545.66
2023-02-04T08:01:30.962Z,100545.66
2023-02-04T08:06:27.700Z,100547.34
2023-02-04T08:11:24.304Z,100556.00
2023-02-04T08:16:21.711Z,100560.28
2023-02-04T08:21:19.454Z,100560.38
2023-02-04T08:26:16.310Z,100557.72
2023-02-04T08:31:13.054Z,100561.78
2023-02-04T08:36:13.006Z,100557.38
2023-02-04T08:41:09.760Z,100560.03
2023-02-04T08:46:06.356Z,100550.56
2023-02-04T08:51:04.517Z,100559.91
2023-02-04T08:56:02.037Z,100556.91
2023-02-04T09:00:59.529Z,100557.41
2023-02-04T09:05:56.691Z,100556.25
2023-02-04T09:10:53.522Z,100558.66
2023-02-04T09:15:53.554Z,100554.13
2023-02-04T09:20:51.913Z,100560.09
2023-02-04T09:25:50.018Z,100547.03
2023-02-04T09:30:47.156Z,100552.97
2023-02-04T09:35:44.595Z,100546.81
2023-02-04T09:40:42.383Z,100556.22
2023-02-04T09:45:39.133Z,100552.13
2023-02-04T09:50:37.298Z,100545.13
2023-02-04T09:55:37.693Z,100545.97
2023-02-04T10:00:34.489Z,100547.63
2023-02-04T10:05:36.853Z,100545.91
2023-02-04T10:10:34.499Z,100544.84
2023-02-04T10:15:31.796Z,100547.28
2023-02-04T10:20:28.432Z,100547.31
2023-02-04T10:25:25.916Z,100554.16
2023-02-04T10:30:24.214Z,100554.97
2023-02-04T10:35:25.518Z,100552.56
2023-02-04T10:40:26.862Z,100552.53
2023-02-04T10:45:25.250Z,100561.94
2023-02-04T10:50:22.921Z,100557.56
2023-02-04T10:55:20.934Z,100546.41
2023-02-04T11:00:19.122Z,100533.47
2023-02-04T11:05:18.920Z,100549.66
2023-02-04T11:10:16.417Z,100544.34
2023-02-04T11:15:31.811Z,100529.34
2023-02-04T11:20:31.717Z,100539.72
2023-02-04T11:25:32.249Z,100549.19
2023-02-04T11:30:31.722Z,100545.72
2023-02-04T11:35:28.992Z,100530.00
2023-02-04T11:40:28.390Z,100547.13
2023-02-04T11:45:29.846Z,100539.97
2023-02-04T11:50:28.764Z,100546.94
2023-02-04T11:55:26.941Z,100547.66
2023-02-04T12:00:25.235Z,100548.56
2023-02-04T12:05:21.989Z,100544.97
2023-02-04T12:10:25.689Z,100548.59
2023-02-04T12:15:59.194Z,100556.34
2023-02-04T12:20:56.832Z,100555.50
2023-02-04T12:25:53.887Z,100559.66
2023-02-04T12:30:51.539Z,100563.13
2023-02-04T12:35:48.341Z,100561.50
2023-02-04T12:40:45.175Z,100573.66
2023-02-04T12:45:46.482Z,100581.59
2023-02-04T12:50:43.910Z,100586.56
2023-02-04T12:55:40.521Z,100578.75
2023-02-04T13:00:37.329Z,100599.31
2023-02-04T13:05:35.346Z,100602.13
2023-02-04T13:10:32.889Z,100611.72
2023-02-04T13:15:29.616Z,100609.28
2023-02-04T13:20:26.390Z,100605.03
2023-02-04T13:25:23.077Z,100618.75
2023-02-04T13:30:20.764Z,100630.16
2023-02-04T13:35:18.805Z,100639.66
2023-02-04T13:40:15.601Z,100627.81
2023-02-04T13:45:12.375Z,100651.25
2023-02-04T13:50:10.072Z,100633.13
2023-02-04T13:55:06.812Z,100653.88
2023-02-04T14:00:03.865Z,100659.75
2023-02-04T14:05:09.702Z,100655.69
2023-02-04T14:10:06.596Z,100656.47
2023-02-04T14:15:03.518Z,100662.00
2023-02-04T14:20:00.163Z,100680.13
2023-02-04T14:24:57.950Z,100681.09
2023-02-04T14:29:54.685Z,100683.53
2023-02-04T14:35:01.370Z,100690.38
2023-02-04T14:40:00.900Z,100681.00
2023-02-04T14:44:58.061Z,100688.00
2023-02-04T14:49:54.816Z,100699.75
2023-02-04T14:54:51.745Z,100714.28
2023-02-04T14:59:49.136Z,100719.59
2023-02-04T15:04:45.908Z,100727.41
2023-02-04T15:09:44.110Z,100742.94
2023-02-04T15:14:40.811Z,100749.41
2023-02-04T15:19:38.230Z,100771.69
2023-02-04T15:24:35.180Z,100785.19
2023-02-04T15:29:32.551Z,100806.06
2023-02-04T15:34:29.345Z,100810.13
2023-02-04T15:39:27.093Z,100821.25
2023-02-04T15:44:23.921Z,100832.53
2023-02-04T15:49:20.679Z,100841.38
2023-02-04T15:54:17.534Z,100835.38
2023-02-04T15:59:15.314Z,100863.00
2023-02-04T16:04:12.074Z,100870.97
2023-02-04T16:09:08.807Z,100870.91
2023-02-04T16:14:05.487Z,100880.78
2023-02-04T16:19:02.850Z,100881.69
2023-02-04T16:23:59.506Z,100892.06
2023-02-04T16:28:56.206Z,100893.91
2023-02-04T16:34:01.541Z,100896.56
2023-02-04T16:39:02.322Z,100906.91
2023-02-04T16:43:59.529Z,100904.38
2023-02-04T16:48:56.406Z,100909.53
2023-02-04T16:53:52.940Z,100913.03
2023-02-04T16:58:50.547Z,100923.41
2023-02-04T17:03:47.103Z,100935.47
2023-02-04T17:08:45.663Z,100946.72
2023-02-04T17:13:42.424Z,100947.59
2023-02-04T17:18:39.733Z,100908.72
2023-02-04T17:23:36.695Z,100956.22
2023-02-04T17:28:35.752Z,100961.38
2023-02-04T17:33:32.883Z,100968.31
2023-02-04T17:38:30.431Z,100970.03
2023-02-04T17:43:33.778Z,100979.56
2023-02-04T17:48:35.655Z,100989.00
2023-02-04T17:53:36.203Z,101001.97
2023-02-04T17:58:36.289Z,100998.53
2023-02-04T18:03:33.255Z,101007.16
2023-02-04T18:08:35.334Z,101006.28
2023-02-04T18:13:35.241Z,101017.53
2023-02-04T18:18:35.431Z,101023.59
2023-02-04T18:23:32.695Z,101027.03
2023-02-04T18:28:29.339Z,101037.38
2023-02-04T18:33:26.994Z,101052.06
2023-02-04T18:38:26.339Z,101073.63
2023-02-04T18:43:24.395Z,101071.94
2023-02-04T18:48:54.397Z,101083.16
2023-02-04T18:53:52.394Z,101084.00
2023-02-04T18:58:49.896Z,101071.88
2023-02-04T19:03:50.368Z,101093.44
2023-02-04T19:08:47.321Z,101099.59
2023-02-04T19:13:44.646Z,101106.53
2023-02-04T19:18:44.069Z,101115.13
2023-02-04T19:23:40.916Z,101126.41
2023-02-04T19:28:37.842Z,101131.34
2023-02-04T19:33:37.579Z,101138.31
2023-02-04T19:38:37.289Z,101145.94
2023-02-04T19:43:35.579Z,101148.53
2023-02-04T19:48:33.433Z,101154.41
2023-02-04T19:53:32.018Z,101147.34
2023-02-04T19:58:29.175Z,101163.13
2023-02-04T20:03:28.100Z,101163.97
2023-02-04T20:08:42.153Z,101168.28
2023-02-04T20:13:38.966Z,101169.78
2023-02-04T20:18:38.698Z,101181.03
2023-02-04T20:23:35.337Z,101187.13
2023-02-04T20:28:37.924Z,101178.63
2023-02-04T20:33:36.809Z,101183.75
2023-02-04T20:38:33.711Z,101191.44
2023-02-04T20:43:34.288Z,101191.41
2023-02-04T20:48:32.829Z,101175.75
2023-02-04T20:53:36.453Z,101213.72
2023-02-04T20:58:37.210Z,101228.47
2023-02-04T21:03:35.741Z,101231.88
2023-02-04T21:08:34.894Z,101247.44
2023-02-04T21:13:31.894Z,101242.44
2023-02-04T21:18:29.558Z,101251.09
2023-02-04T21:23:26.786Z,101263.84
2023-02-04T21:28:23.477Z,101261.13
2023-02-04T21:33:31.926Z,101272.13
2023-02-04T21:38:29.980Z,101285.78
2023-02-04T21:43:27.005Z,101285.75
2023-02-04T21:48:24.328Z,101291.78
2023-02-04T21:53:21.088Z,101302.28
2023-02-04T21:58:18.584Z,101307.47
2023-02-04T22:03:16.731Z,101310.94
2023-02-04T22:08:13.662Z,101334.28
2023-02-04T22:13:28.309Z,101331.31
2023-02-04T22:18:25.652Z,101315.75
2023-02-04T22:23:22.619Z,101316.63
2023-02-04T22:28:19.542Z,101331.34
2023-02-04T22:33:16.251Z,101343.53
2023-02-04T22:38:13.622Z,101349.44
2023-02-04T22:43:13.427Z,101346.66
2023-02-04T22:48:10.305Z,101359.13
2023-02-04T22:53:06.998Z,101355.38
2023-02-04T22:58:04.323Z,101364.88
2023-02-04T23:03:01.001Z,101367.41
2023-02-04T23:07:57.987Z,101387.94
2023-02-04T23:12:54.588Z,101385.91
2023-02-04T23:17:52.289Z,101400.44
2023-02-04T23:22:49.088Z,101393.19
2023-02-04T23:27:45.701Z,101413.16
2023-02-04T23:32:42.483Z,101417.34
2023-02-04T23:37:39.731Z,101432.03
2023-02-04T23:42:36.552Z,101441.66
2023-02-04T23:47:36.831Z,101448.66
2023-02-04T23:52:33.362Z,101432.03
2023-02-04T23:57:30.639Z,101434.81
